Western Pride — WDD5447 — position and weather

sailwx.info

Track history (hours):
 
Tides and Currents Weather Stations Pressure Air Temp Water Temp Dewpoint Dewpoint Depression Visibility Wind Speed Wind Dir Waves Ship Positions

Western Pride

Owner: Western Pride, Balboa, CA. More information available from US FCC via Universal Licensing System and Coast Guard Vessel Documentation Center.

Last reported at 2017-Sep-18 00:50 UTC. Time now 2017-Sep-19 19:12 UTC.
Position N 33°36' W 117°54'.

Length 23 m.

Type: Passenger vessel. MMSI: 367158550.

Date/timePositionNaut miles runAvg speedWind from/ knotsBaromVisibWave heightAir tempDewpointWater temp
2017-Sep-18 00:50N 33°36' W 117°54'2 3.3
2017-Sep-18 00:22N 33°35' W 117°53'2 3.0
2017-Sep-17 23:50N 33°33' W 117°52'1 3.1
2017-Sep-17 23:30N 33°33' W 117°51'0 0.0
2017-Sep-17 23:00N 33°33' W 117°51'0 0.0
2017-Sep-17 22:29N 33°33' W 117°51'1 2.7
2017-Sep-17 22:00N 33°32' W 117°50'0 0.1
2017-Sep-17 21:29N 33°32' W 117°50'0 0.0
2017-Sep-17 21:00N 33°32' W 117°50'0 0.0
2017-Sep-17 20:31N 33°32' W 117°50'3 5.5
2017-Sep-17 20:01N 33°35' W 117°52'2 4.4
2017-Sep-17 19:29N 33°36' W 117°54'0 0.0
2017-Sep-17 19:00N 33°36' W 117°54'3 6.6
2017-Sep-17 18:30N 33°34' W 117°52'2 3.6
2017-Sep-17 18:01N 33°32' W 117°50'0 0.0
2017-Sep-17 17:30N 33°32' W 117°50'0 0.0
2017-Sep-17 17:00N 33°32' W 117°50'0 0.1
2017-Sep-17 16:30N 33°32' W 117°50'4 8.5
2017-Sep-17 16:00N 33°35' W 117°54'4 4.4
2017-Sep-17 15:08N 33°37' W 117°58'0 0.0
2017-Sep-17 14:49N 33°37' W 117°58'0 0.2
2017-Sep-17 14:30N 33°37' W 117°58'4 8.2
2017-Sep-17 13:59N 33°35' W 117°54'1 1.6
2017-Sep-17 13:30N 33°36' W 117°53'1 0.2
2017-Sep-17 07:52N 33°36' W 117°54'4 5.4
2017-Sep-17 07:11N 33°33' W 117°56'0 0.5
2017-Sep-17 07:00N 33°33' W 117°56'0 0.3
2017-Sep-17 06:28N 33°33' W 117°56'0 0.4
2017-Sep-17 06:00N 33°33' W 117°57'0 0.3
2017-Sep-17 05:30N 33°33' W 117°57'0 0.3
2017-Sep-17 05:00N 33°33' W 117°57'0 0.4
2017-Sep-17 04:30N 33°34' W 117°57'0 0.5
2017-Sep-17 04:00N 33°34' W 117°57'4 7.7
2017-Sep-17 03:29N 33°35' W 117°53'1 2.6
2017-Sep-17 03:00N 33°36' W 117°54'0 0.1
2017-Sep-17 02:30N 33°36' W 117°54'0 0.0
2017-Sep-17 02:00N 33°36' W 117°54'0 0.1
2017-Sep-17 01:30N 33°36' W 117°54'0 0.0
2017-Sep-17 00:19N 33°36' W 117°54'5 7.0
2017-Sep-16 23:32N 33°33' W 117°59'012.2
2017-Sep-16 23:30N 33°32' W 117°59'21 8.9
2017-Sep-16 21:10N 33°24' W 118°22'0 0.5
2017-Sep-16 20:48N 33°24' W 118°22'3 9.3
2017-Sep-16 20:28N 33°21' W 118°20'0 0.1
2017-Sep-16 19:48N 33°21' W 118°20'2 5.9
2017-Sep-16 19:30N 33°20' W 118°18'4 1.6
2017-Sep-16 17:00N 33°19' W 118°23'4 5.4
2017-Sep-16 16:15N 33°18' W 118°18'0 1.3
2017-Sep-16 15:59N 33°18' W 118°18'0 0.0
2017-Sep-16 15:30N 33°18' W 118°18'3 6.1
2017-Sep-16 15:00N 33°20' W 118°15'5 9.7
2017-Sep-16 14:28N 33°23' W 118°11'5 9.8
2017-Sep-16 14:00N 33°26' W 118°06'5 9.6
2017-Sep-16 13:30N 33°29' W 118°02'5 9.5
2017-Sep-16 13:00N 33°32' W 117°57'5 9.6
2017-Sep-16 12:30N 33°35' W 117°53'1 0.1
2017-Sep-16 00:49N 33°36' W 117°54'0 0.0
2017-Sep-16 00:30N 33°36' W 117°54'9 7.0
2017-Sep-15 23:12N 33°30' W 118°02'310.6
2017-Sep-15 22:58N 33°29' W 118°05'15 4.9
2017-Sep-15 19:51N 33°23' W 118°22'1 2.2
2017-Sep-15 19:18N 33°23' W 118°21'3 9.7
2017-Sep-15 18:59N 33°20' W 118°18'0 0.6
2017-Sep-15 18:29N 33°20' W 118°18'0 0.0
2017-Sep-15 17:54N 33°20' W 118°18'2 5.4
2017-Sep-15 17:30N 33°18' W 118°19'0 0.4
2017-Sep-15 16:59N 33°18' W 118°19'1 1.2
2017-Sep-15 16:25N 33°18' W 118°18'0 0.1
2017-Sep-15 15:59N 33°18' W 118°18'4 8.1
2017-Sep-15 15:27N 33°21' W 118°14'4 9.8
2017-Sep-15 15:00N 33°23' W 118°10'5 9.8
2017-Sep-15 14:30N 33°26' W 118°05'4 7.3
2017-Sep-15 14:00N 33°29' W 118°02'5 9.4
2017-Sep-15 13:30N 33°32' W 117°57'5 9.5
2017-Sep-15 13:00N 33°35' W 117°53'1 2.8
2017-Sep-15 12:30N 33°36' W 117°54'0 0.3
2017-Sep-15 12:00N 33°36' W 117°54'9 0.7
2017-Sep-14 23:19N 33°30' W 118°01'17 9.5
2017-Sep-14 21:30N 33°20' W 118°18'0 0.0
2017-Sep-14 20:59N 33°20' W 118°18'0 0.1
2017-Sep-14 20:26N 33°20' W 118°18'2 4.0
2017-Sep-14 19:59N 33°18' W 118°19'0 0.1
2017-Sep-14 16:24N 33°18' W 118°18'1 1.6
2017-Sep-14 16:00N 33°19' W 118°18'5 9.7
2017-Sep-14 15:30N 33°21' W 118°12'5 9.5
2017-Sep-14 15:00N 33°22' W 118°07'4 7.3
2017-Sep-14 14:30N 33°25' W 118°04'  
2017-Sep-08 23:40N 33°30' W 118°02'210.6
2017-Sep-08 23:30N 33°29' W 118°04'510.0
2017-Sep-08 23:00N 33°27' W 118°09'5 9.9
2017-Sep-08 22:30N 33°24' W 118°14'5 9.9
2017-Sep-08 22:01N 33°22' W 118°19'0 1.0
2017-Sep-08 21:31N 33°21' W 118°20'2 4.0
2017-Sep-08 21:00N 33°20' W 118°18'2 4.8
2017-Sep-08 20:30N 33°18' W 118°20'1 1.1
2017-Sep-08 20:01N 33°18' W 118°19'1 2.9
2017-Sep-08 19:30N 33°19' W 118°18'1 1.8
2017-Sep-08 19:01N 33°20' W 118°18'2 4.1
2017-Sep-08 18:30N 33°21' W 118°16'5 9.7
2017-Sep-08 18:01N 33°25' W 118°13'5 9.8
2017-Sep-08 17:30N 33°29' W 118°09'  
Track history (hours):
 
Tides and Currents Weather Stations Pressure Air Temp Water Temp Dewpoint Dewpoint Depression Visibility Wind Speed Wind Dir Waves Ship Positions

Western Pride

Owner: Western Pride, Balboa, CA. More information available from US FCC via Universal Licensing System and Coast Guard Vessel Documentation Center.

Last reported at 2017-Sep-18 00:50 UTC. Time now 2017-Sep-19 19:12 UTC.
Position N 33°36' W 117°54'.

Length 23 m.

Type: Passenger vessel. MMSI: 367158550.

Date/timePositionNaut miles runAvg speedWind from/ knotsBaromVisibWave heightAir tempDewpointWater temp
2017-Sep-18 00:50N 33°36' W 117°54'2 3.3
2017-Sep-18 00:22N 33°35' W 117°53'2 3.0
2017-Sep-17 23:50N 33°33' W 117°52'1 3.1
2017-Sep-17 23:30N 33°33' W 117°51'0 0.0
2017-Sep-17 23:00N 33°33' W 117°51'0 0.0
2017-Sep-17 22:29N 33°33' W 117°51'1 2.7
2017-Sep-17 22:00N 33°32' W 117°50'0 0.1
2017-Sep-17 21:29N 33°32' W 117°50'0 0.0
2017-Sep-17 21:00N 33°32' W 117°50'0 0.0
2017-Sep-17 20:31N 33°32' W 117°50'3 5.5
2017-Sep-17 20:01N 33°35' W 117°52'2 4.4
2017-Sep-17 19:29N 33°36' W 117°54'0 0.0
2017-Sep-17 19:00N 33°36' W 117°54'3 6.6
2017-Sep-17 18:30N 33°34' W 117°52'2 3.6
2017-Sep-17 18:01N 33°32' W 117°50'0 0.0
2017-Sep-17 17:30N 33°32' W 117°50'0 0.0
2017-Sep-17 17:00N 33°32' W 117°50'0 0.1
2017-Sep-17 16:30N 33°32' W 117°50'4 8.5
2017-Sep-17 16:00N 33°35' W 117°54'4 4.4
2017-Sep-17 15:08N 33°37' W 117°58'0 0.0
2017-Sep-17 14:49N 33°37' W 117°58'0 0.2
2017-Sep-17 14:30N 33°37' W 117°58'4 8.2
2017-Sep-17 13:59N 33°35' W 117°54'1 1.6
2017-Sep-17 13:30N 33°36' W 117°53'1 0.2
2017-Sep-17 07:52N 33°36' W 117°54'4 5.4
2017-Sep-17 07:11N 33°33' W 117°56'0 0.5
2017-Sep-17 07:00N 33°33' W 117°56'0 0.3
2017-Sep-17 06:28N 33°33' W 117°56'0 0.4
2017-Sep-17 06:00N 33°33' W 117°57'0 0.3
2017-Sep-17 05:30N 33°33' W 117°57'0 0.3
2017-Sep-17 05:00N 33°33' W 117°57'0 0.4
2017-Sep-17 04:30N 33°34' W 117°57'0 0.5
2017-Sep-17 04:00N 33°34' W 117°57'4 7.7
2017-Sep-17 03:29N 33°35' W 117°53'1 2.6
2017-Sep-17 03:00N 33°36' W 117°54'0 0.1
2017-Sep-17 02:30N 33°36' W 117°54'0 0.0
2017-Sep-17 02:00N 33°36' W 117°54'0 0.1
2017-Sep-17 01:30N 33°36' W 117°54'0 0.0
2017-Sep-17 00:19N 33°36' W 117°54'5 7.0
2017-Sep-16 23:32N 33°33' W 117°59'012.2
2017-Sep-16 23:30N 33°32' W 117°59'21 8.9
2017-Sep-16 21:10N 33°24' W 118°22'0 0.5
2017-Sep-16 20:48N 33°24' W 118°22'3 9.3
2017-Sep-16 20:28N 33°21' W 118°20'0 0.1
2017-Sep-16 19:48N 33°21' W 118°20'2 5.9
2017-Sep-16 19:30N 33°20' W 118°18'4 1.6
2017-Sep-16 17:00N 33°19' W 118°23'4 5.4
2017-Sep-16 16:15N 33°18' W 118°18'0 1.3
2017-Sep-16 15:59N 33°18' W 118°18'0 0.0
2017-Sep-16 15:30N 33°18' W 118°18'3 6.1
2017-Sep-16 15:00N 33°20' W 118°15'5 9.7
2017-Sep-16 14:28N 33°23' W 118°11'5 9.8
2017-Sep-16 14:00N 33°26' W 118°06'5 9.6
2017-Sep-16 13:30N 33°29' W 118°02'5 9.5
2017-Sep-16 13:00N 33°32' W 117°57'5 9.6
2017-Sep-16 12:30N 33°35' W 117°53'1 0.1
2017-Sep-16 00:49N 33°36' W 117°54'0 0.0
2017-Sep-16 00:30N 33°36' W 117°54'9 7.0
2017-Sep-15 23:12N 33°30' W 118°02'310.6
2017-Sep-15 22:58N 33°29' W 118°05'15 4.9
2017-Sep-15 19:51N 33°23' W 118°22'1 2.2
2017-Sep-15 19:18N 33°23' W 118°21'3 9.7
2017-Sep-15 18:59N 33°20' W 118°18'0 0.6
2017-Sep-15 18:29N 33°20' W 118°18'0 0.0
2017-Sep-15 17:54N 33°20' W 118°18'2 5.4
2017-Sep-15 17:30N 33°18' W 118°19'0 0.4
2017-Sep-15 16:59N 33°18' W 118°19'1 1.2
2017-Sep-15 16:25N 33°18' W 118°18'0 0.1
2017-Sep-15 15:59N 33°18' W 118°18'4 8.1
2017-Sep-15 15:27N 33°21' W 118°14'4 9.8
2017-Sep-15 15:00N 33°23' W 118°10'5 9.8
2017-Sep-15 14:30N 33°26' W 118°05'4 7.3
2017-Sep-15 14:00N 33°29' W 118°02'5 9.4
2017-Sep-15 13:30N 33°32' W 117°57'5 9.5
2017-Sep-15 13:00N 33°35' W 117°53'1 2.8
2017-Sep-15 12:30N 33°36' W 117°54'0 0.3
2017-Sep-15 12:00N 33°36' W 117°54'9 0.7
2017-Sep-14 23:19N 33°30' W 118°01'17 9.5
2017-Sep-14 21:30N 33°20' W 118°18'0 0.0
2017-Sep-14 20:59N 33°20' W 118°18'0 0.1
2017-Sep-14 20:26N 33°20' W 118°18'2 4.0
2017-Sep-14 19:59N 33°18' W 118°19'0 0.1
2017-Sep-14 16:24N 33°18' W 118°18'1 1.6
2017-Sep-14 16:00N 33°19' W 118°18'5 9.7
2017-Sep-14 15:30N 33°21' W 118°12'5 9.5
2017-Sep-14 15:00N 33°22' W 118°07'4 7.3
2017-Sep-14 14:30N 33°25' W 118°04'  
2017-Sep-08 23:40N 33°30' W 118°02'210.6
2017-Sep-08 23:30N 33°29' W 118°04'510.0
2017-Sep-08 23:00N 33°27' W 118°09'5 9.9
2017-Sep-08 22:30N 33°24' W 118°14'5 9.9
2017-Sep-08 22:01N 33°22' W 118°19'0 1.0
2017-Sep-08 21:31N 33°21' W 118°20'2 4.0
2017-Sep-08 21:00N 33°20' W 118°18'2 4.8
2017-Sep-08 20:30N 33°18' W 118°20'1 1.1
2017-Sep-08 20:01N 33°18' W 118°19'1 2.9
2017-Sep-08 19:30N 33°19' W 118°18'1 1.8
2017-Sep-08 19:01N 33°20' W 118°18'2 4.1
2017-Sep-08 18:30N 33°21' W 118°16'5 9.7
2017-Sep-08 18:01N 33°25' W 118°13'5 9.8
2017-Sep-08 17:30N 33°29' W 118°09'  

Dump ship's entire track history